Time;durP1;ratioP1;P1;durP2;ratioP2;P2;SDS_P1;SDS_P2;PMS_P1;PMS_P2;Temp;Humidity;BMP_temperature;BMP_pressure;BME280_temperature;BME280_humidity;BME280_pressure;Samples;Min_cycle;Max_cycle;Signal;HPM_P1;HPM_P2
2023/09/17 00:00:13;;;;;;;23.20;20.60;;;;;;;;;;5029473;28;20057;-60
2023/09/17 00:02:40;;;;;;;23.70;21.20;;;;;;;;;;5029618;28;20046;-59
2023/09/17 00:05:06;;;;;;;24.13;21.60;;;;;;;;;;5029657;28;20426;-60
2023/09/17 00:07:32;;;;;;;24.20;20.90;;;;;;;;;;5028051;28;20092;-60
2023/09/17 00:09:58;;;;;;;24.37;21.87;;;;;;;;;;5029511;28;20045;-60
2023/09/17 00:12:24;;;;;;;23.10;20.73;;;;;;;;;;5029260;28;20053;-60
2023/09/17 00:14:50;;;;;;;22.93;20.60;;;;;;;;;;5028792;28;20430;-60
2023/09/17 00:17:16;;;;;;;23.67;21.30;;;;;;;;;;5029011;28;20045;-60
2023/09/17 00:19:42;;;;;;;23.77;21.10;;;;;;;;;;5029168;28;20411;-60
2023/09/17 00:22:11;;;;;;;24.17;21.60;;;;;;;;;;5029126;28;20091;-60
2023/09/17 00:24:37;;;;;;;24.57;21.30;;;;;;;;;;5029380;28;20049;-60
2023/09/17 00:27:03;;;;;;;23.07;20.57;;;;;;;;;;5028943;28;20132;-60
2023/09/17 00:29:29;;;;;;;25.90;21.43;;;;;;;;;;5028525;28;20045;-60
2023/09/17 00:31:55;;;;;;;27.73;21.03;;;;;;;;;;5028918;28;20049;-60
2023/09/17 00:34:21;;;;;;;25.67;21.60;;;;;;;;;;5027879;28;20069;-60
2023/09/17 00:36:47;;;;;;;23.27;20.43;;;;;;;;;;5028649;28;20068;-60
2023/09/17 00:39:13;;;;;;;24.90;22.27;;;;;;;;;;5028719;28;20172;-60
2023/09/17 00:41:39;;;;;;;28.23;24.77;;;;;;;;;;5028197;28;20524;-60
2023/09/17 00:44:05;;;;;;;25.47;23.03;;;;;;;;;;5028575;28;20100;-60
2023/09/17 00:46:31;;;;;;;31.30;24.20;;;;;;;;;;5028772;28;20140;-60
2023/09/17 00:48:58;;;;;;;27.77;24.77;;;;;;;;;;5028715;28;20095;-60
2023/09/17 00:51:25;;;;;;;31.00;24.13;;;;;;;;;;5028349;28;20160;-60
2023/09/17 00:53:51;;;;;;;29.20;25.07;;;;;;;;;;5028596;28;20451;-60
2023/09/17 00:56:17;;;;;;;28.70;25.67;;;;;;;;;;5028808;28;20045;-60
2023/09/17 00:58:43;;;;;;;26.90;23.87;;;;;;;;;;5028494;28;20110;-60
2023/09/17 01:01:12;;;;;;;26.20;23.23;;;;;;;;;;5028156;28;20116;-60
2023/09/17 01:03:39;;;;;;;30.53;25.23;;;;;;;;;;5028378;28;20046;-60
2023/09/17 01:06:06;;;;;;;26.27;23.40;;;;;;;;;;5028046;28;20252;-59
2023/09/17 01:08:33;;;;;;;26.73;23.93;;;;;;;;;;5028169;28;20049;-60
2023/09/17 01:10:59;;;;;;;28.30;25.37;;;;;;;;;;5028484;28;20488;-59
2023/09/17 01:13:25;;;;;;;26.77;23.27;;;;;;;;;;5027997;28;20538;-60
2023/09/17 01:15:51;;;;;;;30.03;26.23;;;;;;;;;;5028684;28;20508;-59
2023/09/17 01:18:21;;;;;;;27.00;24.13;;;;;;;;;;5028280;28;20498;-60
2023/09/17 01:20:48;;;;;;;29.67;26.47;;;;;;;;;;5028017;28;20570;-59
2023/09/17 01:23:25;;;;;;;30.63;26.27;;;;;;;;;;5028280;28;20419;-59
2023/09/17 01:25:51;;;;;;;29.93;25.97;;;;;;;;;;5028138;28;20060;-60
2023/09/17 01:28:18;;;;;;;28.17;25.27;;;;;;;;;;5027977;28;20041;-59
2023/09/17 01:30:45;;;;;;;30.10;26.83;;;;;;;;;;5028363;28;20099;-60
2023/09/17 01:33:11;;;;;;;30.77;26.30;;;;;;;;;;5027644;28;20042;-60
2023/09/17 01:35:44;;;;;;;31.33;27.63;;;;;;;;;;5028274;28;20045;-60
2023/09/17 01:38:12;;;;;;;35.30;27.80;;;;;;;;;;5028028;28;20048;-60
2023/09/17 01:40:39;;;;;;;30.53;27.20;;;;;;;;;;5028123;28;20080;-60
2023/09/17 01:43:06;;;;;;;33.13;29.57;;;;;;;;;;5028170;28;20055;-60
2023/09/17 01:45:32;;;;;;;29.87;26.57;;;;;;;;;;5027455;28;20045;-60
2023/09/17 01:48:00;;;;;;;34.07;28.53;;;;;;;;;;5028207;28;20049;-60
2023/09/17 01:50:28;;;;;;;34.33;28.73;;;;;;;;;;5027910;28;20054;-60
2023/09/17 01:52:55;;;;;;;32.17;28.67;;;;;;;;;;5028228;28;20566;-60
2023/09/17 01:55:22;;;;;;;30.90;27.53;;;;;;;;;;5027343;28;20392;-60
2023/09/17 01:57:48;;;;;;;31.77;28.37;;;;;;;;;;5027945;28;20061;-60
2023/09/17 02:00:16;;;;;;;33.50;29.90;;;;;;;;;;5027625;28;20137;-60
2023/09/17 02:02:49;;;;;;;30.90;26.80;;;;;;;;;;5027896;28;20554;-60
2023/09/17 02:05:16;;;;;;;32.50;28.92;;;;;;;;;;5027435;28;20049;-60
2023/09/17 02:07:43;;;;;;;32.43;28.10;;;;;;;;;;5028090;28;20304;-60
2023/09/17 02:10:09;;;;;;;31.07;27.73;;;;;;;;;;5027604;28;20041;-60
2023/09/17 02:12:35;;;;;;;31.13;27.77;;;;;;;;;;5027670;28;20045;-60
2023/09/17 02:15:01;;;;;;;32.37;28.90;;;;;;;;;;5027263;28;20136;-60
2023/09/17 02:17:28;;;;;;;33.53;29.77;;;;;;;;;;5027547;28;20076;-60
2023/09/17 02:19:54;;;;;;;36.07;31.13;;;;;;;;;;5026325;28;20061;-60
2023/09/17 02:22:20;;;;;;;38.90;28.87;;;;;;;;;;5027430;28;20482;-60
2023/09/17 02:24:46;;;;;;;32.10;28.90;;;;;;;;;;5027571;28;20073;-60
2023/09/17 02:27:13;;;;;;;34.33;29.50;;;;;;;;;;5027172;28;20054;-60
2023/09/17 02:29:40;;;;;;;34.20;29.90;;;;;;;;;;5028836;28;20088;-60
2023/09/17 02:32:06;;;;;;;35.50;31.50;;;;;;;;;;5031160;28;20091;-60
2023/09/17 02:34:32;;;;;;;35.63;30.00;;;;;;;;;;5031138;28;20088;-60
2023/09/17 02:36:58;;;;;;;35.80;31.10;;;;;;;;;;5030797;28;20046;-60
2023/09/17 02:39:24;;;;;;;34.67;29.03;;;;;;;;;;5030933;28;20041;-60
2023/09/17 02:41:50;;;;;;;37.80;30.37;;;;;;;;;;5031068;28;20542;-60
2023/09/17 02:44:16;;;;;;;33.83;30.13;;;;;;;;;;5030799;28;20053;-60
2023/09/17 02:46:42;;;;;;;37.80;33.40;;;;;;;;;;5030906;28;20504;-60
2023/09/17 02:49:09;;;;;;;40.47;32.73;;;;;;;;;;5030660;28;20132;-60
2023/09/17 02:51:35;;;;;;;37.93;30.47;;;;;;;;;;5030971;28;20078;-60
2023/09/17 02:54:01;;;;;;;36.77;32.77;;;;;;;;;;5030676;28;20479;-60
2023/09/17 02:56:27;;;;;;;38.40;31.90;;;;;;;;;;5030965;28;20115;-60
2023/09/17 02:58:52;;;;;;;37.93;32.63;;;;;;;;;;5030601;28;20496;-60
2023/09/17 03:01:19;;;;;;;37.50;33.23;;;;;;;;;;5030710;28;20045;-60
2023/09/17 03:03:45;;;;;;;41.37;32.43;;;;;;;;;;5030188;28;20096;-60
2023/09/17 03:06:11;;;;;;;36.53;31.70;;;;;;;;;;5030886;28;20052;-60
2023/09/17 03:08:41;;;;;;;35.87;31.63;;;;;;;;;;5030593;28;20052;-60
2023/09/17 03:11:10;;;;;;;34.77;31.07;;;;;;;;;;5030285;28;20416;-60
2023/09/17 03:13:36;;;;;;;39.97;34.20;;;;;;;;;;5030445;28;20049;-60
2023/09/17 03:16:02;;;;;;;35.00;31.27;;;;;;;;;;5030155;28;20103;-61
2023/09/17 03:18:28;;;;;;;36.30;31.60;;;;;;;;;;5029027;28;20053;-60
2023/09/17 03:20:54;;;;;;;34.97;31.17;;;;;;;;;;5030250;28;20471;-60
2023/09/17 03:23:20;;;;;;;34.37;30.70;;;;;;;;;;5029719;28;20072;-60
2023/09/17 03:25:46;;;;;;;35.77;31.70;;;;;;;;;;5030257;28;20052;-60
2023/09/17 03:28:12;;;;;;;38.67;32.83;;;;;;;;;;5030080;28;20045;-60
2023/09/17 03:30:38;;;;;;;36.43;31.53;;;;;;;;;;5030224;28;20069;-60
2023/09/17 03:33:05;;;;;;;37.43;31.17;;;;;;;;;;5029988;28;20515;-60
2023/09/17 03:35:32;;;;;;;38.83;34.63;;;;;;;;;;5030196;28;20048;-60
2023/09/17 03:37:58;;;;;;;37.57;32.23;;;;;;;;;;5029647;28;20057;-60
2023/09/17 03:40:24;;;;;;;38.70;34.33;;;;;;;;;;5029223;28;20454;-60
2023/09/17 03:42:50;;;;;;;37.13;33.03;;;;;;;;;;5030112;28;20057;-60
2023/09/17 03:45:16;;;;;;;38.73;32.70;;;;;;;;;;5029786;28;20045;-60
2023/09/17 03:47:43;;;;;;;42.40;34.83;;;;;;;;;;5029858;28;20144;-60
2023/09/17 03:50:13;;;;;;;39.50;34.60;;;;;;;;;;5029092;28;20037;-60
2023/09/17 03:52:41;;;;;;;41.93;34.83;;;;;;;;;;5029967;28;20045;-59
2023/09/17 03:55:07;;;;;;;41.17;33.33;;;;;;;;;;5029574;28;20053;-60
2023/09/17 03:57:34;;;;;;;38.73;34.10;;;;;;;;;;5029784;28;20041;-60
2023/09/17 04:00:06;;;;;;;42.47;33.33;;;;;;;;;;5029521;28;20056;-60
2023/09/17 04:02:32;;;;;;;40.53;34.43;;;;;;;;;;5029663;28;20076;-60
2023/09/17 04:04:58;;;;;;;42.50;34.07;;;;;;;;;;5029166;28;20045;-59
2023/09/17 04:07:24;;;;;;;44.13;34.00;;;;;;;;;;5029199;28;20077;-60
2023/09/17 04:09:50;;;;;;;43.23;36.23;;;;;;;;;;5029442;28;20045;-60
2023/09/17 04:12:16;;;;;;;40.87;33.40;;;;;;;;;;5029385;28;20041;-60
2023/09/17 04:14:42;;;;;;;39.57;31.17;;;;;;;;;;5029171;28;20140;-60
2023/09/17 04:17:08;;;;;;;36.60;32.27;;;;;;;;;;5028599;28;20045;-60
2023/09/17 04:19:34;;;;;;;41.77;33.10;;;;;;;;;;5029103;28;20049;-60
2023/09/17 04:22:00;;;;;;;45.60;37.50;;;;;;;;;;5029150;28;20106;-60
2023/09/17 04:24:26;;;;;;;40.50;34.57;;;;;;;;;;5028879;28;20042;-60
2023/09/17 04:26:54;;;;;;;41.20;33.40;;;;;;;;;;5028582;28;20550;-60
2023/09/17 04:29:20;;;;;;;48.83;36.60;;;;;;;;;;5028762;28;20049;-60
2023/09/17 04:31:46;;;;;;;46.43;36.37;;;;;;;;;;5029028;28;20065;-60
2023/09/17 04:34:13;;;;;;;45.77;38.03;;;;;;;;;;5028968;28;20048;-60
2023/09/17 04:36:40;;;;;;;48.40;37.60;;;;;;;;;;5028460;28;20049;-60
2023/09/17 04:39:09;;;;;;;40.33;33.90;;;;;;;;;;5028486;28;20084;-60
2023/09/17 04:41:35;;;;;;;46.27;34.93;;;;;;;;;;5028912;28;20500;-60
2023/09/17 04:44:06;;;;;;;48.20;36.53;;;;;;;;;;5028870;28;20057;-60
2023/09/17 04:46:32;;;;;;;49.87;37.13;;;;;;;;;;5029080;28;20128;-60
2023/09/17 04:48:58;;;;;;;42.67;35.07;;;;;;;;;;5028416;28;20128;-60
2023/09/17 04:51:24;;;;;;;55.60;40.57;;;;;;;;;;5028375;28;20481;-60
2023/09/17 04:53:50;;;;;;;53.87;41.03;;;;;;;;;;5028418;28;20369;-60
2023/09/17 04:56:16;;;;;;;47.57;37.40;;;;;;;;;;5028566;28;20083;-60
2023/09/17 04:58:42;;;;;;;52.97;40.43;;;;;;;;;;5027928;28;20037;-60
2023/09/17 05:01:08;;;;;;;53.93;40.87;;;;;;;;;;5028319;28;20085;-60
2023/09/17 05:03:34;;;;;;;55.53;40.93;;;;;;;;;;5028397;28;20052;-60
2023/09/17 05:06:00;;;;;;;52.90;40.60;;;;;;;;;;5028514;28;20050;-60
2023/09/17 05:08:26;;;;;;;54.33;42.00;;;;;;;;;;5028615;28;20091;-60
2023/09/17 05:10:53;;;;;;;56.33;40.30;;;;;;;;;;5028025;28;20053;-60
2023/09/17 05:13:19;;;;;;;48.90;38.73;;;;;;;;;;5028104;28;20568;-60
2023/09/17 05:15:44;;;;;;;57.00;40.77;;;;;;;;;;5028122;28;20132;-60
2023/09/17 05:18:10;;;;;;;56.70;42.13;;;;;;;;;;5028416;28;20033;-60
2023/09/17 05:20:39;;;;;;;55.47;42.17;;;;;;;;;;5027779;28;20136;-60
2023/09/17 05:23:05;;;;;;;55.27;40.43;;;;;;;;;;5027989;28;20137;-60
2023/09/17 05:25:33;;;;;;;56.20;41.57;;;;;;;;;;5028223;28;20127;-60
2023/09/17 05:27:59;;;;;;;54.63;43.47;;;;;;;;;;5028107;28;20085;-60
2023/09/17 05:30:25;;;;;;;51.57;40.67;;;;;;;;;;5028018;28;20046;-60
2023/09/17 05:32:51;;;;;;;55.70;39.97;;;;;;;;;;5027902;28;20058;-60
2023/09/17 05:35:17;;;;;;;49.77;38.60;;;;;;;;;;5027595;28;20500;-60
2023/09/17 05:37:43;;;;;;;56.30;40.63;;;;;;;;;;5027799;28;20492;-60
2023/09/17 05:40:10;;;;;;;53.87;41.00;;;;;;;;;;5027537;28;20057;-60
2023/09/17 05:42:36;;;;;;;57.43;43.23;;;;;;;;;;5027293;28;20057;-60
2023/09/17 05:45:04;;;;;;;57.73;44.50;;;;;;;;;;5027686;28;20050;-60
2023/09/17 05:47:30;;;;;;;57.00;43.27;;;;;;;;;;5028096;28;20046;-60
2023/09/17 05:49:58;;;;;;;56.83;43.13;;;;;;;;;;5027635;28;20570;-60
2023/09/17 05:52:24;;;;;;;55.07;44.53;;;;;;;;;;5026969;28;20057;-60
2023/09/17 05:54:50;;;;;;;65.83;44.97;;;;;;;;;;5027792;28;20183;-60
2023/09/17 05:57:16;;;;;;;55.83;43.67;;;;;;;;;;5027512;28;20124;-60
2023/09/17 05:59:42;;;;;;;51.80;42.10;;;;;;;;;;5027493;28;20045;-60
2023/09/17 06:02:09;;;;;;;48.80;41.83;;;;;;;;;;5027018;28;20072;-60
2023/09/17 06:04:35;;;;;;;50.40;40.17;;;;;;;;;;5029152;28;20045;-60
2023/09/17 06:07:01;;;;;;;50.67;38.40;;;;;;;;;;5031471;28;20514;-60
2023/09/17 06:09:27;;;;;;;47.67;38.57;;;;;;;;;;5031448;28;20500;-60
2023/09/17 06:11:53;;;;;;;45.53;38.03;;;;;;;;;;5031492;28;20119;-60
2023/09/17 06:14:19;;;;;;;52.73;39.73;;;;;;;;;;5031028;28;20797;-60
2023/09/17 06:16:45;;;;;;;48.07;39.33;;;;;;;;;;5031631;28;20037;-60
2023/09/17 06:19:11;;;;;;;49.33;39.93;;;;;;;;;;5031214;28;20050;-60
2023/09/17 06:21:37;;;;;;;54.63;42.40;;;;;;;;;;5031244;28;20038;-60
2023/09/17 06:24:03;;;;;;;53.57;40.80;;;;;;;;;;5031097;28;20045;-60
2023/09/17 06:26:29;;;;;;;51.87;39.80;;;;;;;;;;5031276;28;20045;-60
2023/09/17 06:28:55;;;;;;;52.53;42.13;;;;;;;;;;5030779;28;20045;-60
2023/09/17 06:31:22;;;;;;;54.20;40.40;;;;;;;;;;5031327;28;20057;-60
2023/09/17 06:33:48;;;;;;;49.73;40.57;;;;;;;;;;5031301;28;20051;-60
2023/09/17 06:36:14;;;;;;;49.83;40.53;;;;;;;;;;5030566;28;20056;-61
2023/09/17 06:38:40;;;;;;;53.30;42.67;;;;;;;;;;5031081;28;20571;-60
2023/09/17 06:41:06;;;;;;;50.80;40.00;;;;;;;;;;5030750;28;20058;-60
2023/09/17 06:43:32;;;;;;;52.60;41.80;;;;;;;;;;5030625;28;20132;-60
2023/09/17 06:45:59;;;;;;;50.00;41.87;;;;;;;;;;5030969;28;20535;-60
2023/09/17 06:48:25;;;;;;;52.67;42.87;;;;;;;;;;5030796;28;20057;-59
2023/09/17 06:50:51;;;;;;;50.87;41.37;;;;;;;;;;5030180;28;20077;-60
2023/09/17 06:53:17;;;;;;;58.77;46.07;;;;;;;;;;5030192;28;20037;-60
2023/09/17 06:55:43;;;;;;;50.80;41.07;;;;;;;;;;5030789;28;20038;-60
2023/09/17 06:58:09;;;;;;;53.03;43.97;;;;;;;;;;5030376;28;20051;-60
2023/09/17 07:00:36;;;;;;;58.17;43.80;;;;;;;;;;5030519;28;20053;-60
2023/09/17 07:03:02;;;;;;;67.10;47.67;;;;;;;;;;5030572;28;20046;-61
2023/09/17 07:05:28;;;;;;;76.40;53.43;;;;;;;;;;5030264;28;20046;-61
2023/09/17 07:07:55;;;;;;;86.83;57.27;;;;;;;;;;5030375;28;20095;-61
2023/09/17 07:10:21;;;;;;;77.50;53.47;;;;;;;;;;5030388;28;20050;-61
2023/09/17 07:12:47;;;;;;;94.43;56.43;;;;;;;;;;5030292;28;20107;-61
2023/09/17 07:15:13;;;;;;;99.60;60.10;;;;;;;;;;5029503;28;20057;-61
2023/09/17 07:17:39;;;;;;;109.17;61.17;;;;;;;;;;5030229;28;20521;-61
2023/09/17 07:20:06;;;;;;;100.00;59.53;;;;;;;;;;5029644;28;20371;-61
2023/09/17 07:22:32;;;;;;;108.17;61.03;;;;;;;;;;5030248;28;20072;-61
2023/09/17 07:24:58;;;;;;;94.80;57.37;;;;;;;;;;5030015;28;20084;-61
2023/09/17 07:27:28;;;;;;;85.87;53.70;;;;;;;;;;5029978;28;20459;-61
2023/09/17 07:29:54;;;;;;;85.20;55.57;;;;;;;;;;5029950;28;20091;-61
2023/09/17 07:32:20;;;;;;;92.20;56.53;;;;;;;;;;5029579;28;20060;-61
2023/09/17 07:34:46;;;;;;;89.00;56.43;;;;;;;;;;5029705;28;20130;-61
2023/09/17 07:37:12;;;;;;;98.10;59.03;;;;;;;;;;5029432;28;20041;-61
2023/09/17 07:39:38;;;;;;;100.17;58.17;;;;;;;;;;5029735;28;20089;-61
2023/09/17 07:42:04;;;;;;;96.23;57.90;;;;;;;;;;5029253;28;20049;-61
2023/09/17 07:44:30;;;;;;;97.03;58.13;;;;;;;;;;5029606;28;20120;-61
2023/09/17 07:46:56;;;;;;;71.93;52.27;;;;;;;;;;5029810;28;20475;-62
2023/09/17 07:49:27;;;;;;;77.43;50.83;;;;;;;;;;5029715;28;20045;-61
2023/09/17 07:51:53;;;;;;;79.33;51.97;;;;;;;;;;5029362;28;20393;-61
2023/09/17 07:54:19;;;;;;;86.00;55.40;;;;;;;;;;5029330;28;20049;-61
2023/09/17 07:56:45;;;;;;;100.73;59.10;;;;;;;;;;5029492;28;20411;-61
2023/09/17 07:59:11;;;;;;;94.40;57.33;;;;;;;;;;5028950;28;20064;-61
2023/09/17 08:01:36;;;;;;;89.90;56.57;;;;;;;;;;5029539;28;20092;-61
2023/09/17 08:04:03;;;;;;;108.47;62.60;;;;;;;;;;5029418;28;20084;-62
2023/09/17 08:06:29;;;;;;;111.97;63.80;;;;;;;;;;5029600;28;20072;-61
2023/09/17 08:08:55;;;;;;;101.87;62.80;;;;;;;;;;5028779;28;20038;-62
2023/09/17 08:11:22;;;;;;;101.17;59.63;;;;;;;;;;5029116;28;20042;-61
2023/09/17 08:13:48;;;;;;;96.07;60.73;;;;;;;;;;5028929;28;20045;-61
2023/09/17 08:16:14;;;;;;;82.43;56.67;;;;;;;;;;5029155;28;20073;-62
2023/09/17 08:18:41;;;;;;;92.93;58.40;;;;;;;;;;5061158;28;20396;-61
2023/09/17 08:21:07;;;;;;;95.63;59.47;;;;;;;;;;5028041;28;20057;-61
2023/09/17 08:23:33;;;;;;;104.60;64.03;;;;;;;;;;5029168;28;20045;-61
2023/09/17 08:25:59;;;;;;;85.93;57.40;;;;;;;;;;5027649;28;20049;-61
2023/09/17 08:28:25;;;;;;;124.50;67.83;;;;;;;;;;5027878;28;20042;-61
2023/09/17 08:30:51;;;;;;;95.50;60.10;;;;;;;;;;5028858;28;20132;-62
2023/09/17 08:33:17;;;;;;;98.17;59.77;;;;;;;;;;5027916;28;20468;-62
2023/09/17 08:35:43;;;;;;;93.20;58.00;;;;;;;;;;5028209;28;20365;-61
2023/09/17 08:38:10;;;;;;;123.47;67.67;;;;;;;;;;5028628;28;20047;-62
2023/09/17 08:40:37;;;;;;;115.63;68.43;;;;;;;;;;5027284;28;20068;-62
2023/09/17 08:43:04;;;;;;;79.07;53.97;;;;;;;;;;5028506;28;20049;-62
2023/09/17 08:45:30;;;;;;;95.13;58.53;;;;;;;;;;5027949;28;20049;-62
2023/09/17 08:47:56;;;;;;;107.63;63.57;;;;;;;;;;5028445;28;20046;-62
2023/09/17 08:50:23;;;;;;;96.77;58.93;;;;;;;;;;5028516;28;20487;-62
2023/09/17 08:52:54;;;;;;;85.97;54.53;;;;;;;;;;5028439;28;20056;-62
2023/09/17 08:55:20;;;;;;;106.00;58.93;;;;;;;;;;5028328;28;20053;-62
2023/09/17 08:57:49;;;;;;;97.43;59.63;;;;;;;;;;5027822;28;20049;-62
2023/09/17 09:00:17;;;;;;;112.57;62.23;;;;;;;;;;5028077;28;20088;-62
2023/09/17 09:02:44;;;;;;;103.33;59.77;;;;;;;;;;5028513;28;20038;-62
2023/09/17 09:05:11;;;;;;;100.30;60.37;;;;;;;;;;5028323;28;20037;-62
2023/09/17 09:07:38;;;;;;;69.53;50.53;;;;;;;;;;5028356;28;20050;-62
2023/09/17 09:10:04;;;;;;;145.30;67.07;;;;;;;;;;5027401;28;20054;-63
2023/09/17 09:12:30;;;;;;;66.77;47.17;;;;;;;;;;5028398;28;20095;-62
2023/09/17 09:14:58;;;;;;;39.30;34.93;;;;;;;;;;5028111;28;20587;-62
2023/09/17 09:17:24;;;;;;;43.43;36.57;;;;;;;;;;5027837;28;20146;-62
2023/09/17 09:19:50;;;;;;;73.77;45.50;;;;;;;;;;5028089;28;20132;-63
2023/09/17 09:22:16;;;;;;;46.13;38.57;;;;;;;;;;5028186;28;20049;-62
2023/09/17 09:24:46;;;;;;;45.20;38.03;;;;;;;;;;5025499;28;20048;-62
2023/09/17 09:27:11;;;;;;;42.40;37.63;;;;;;;;;;5018599;28;20045;-62
2023/09/17 09:29:42;;;;;;;42.70;35.30;;;;;;;;;;5026039;28;20454;-62
2023/09/17 09:32:09;;;;;;;50.33;38.10;;;;;;;;;;5027186;28;20049;-62
2023/09/17 09:34:35;;;;;;;43.33;36.23;;;;;;;;;;5028326;28;20045;-62
2023/09/17 09:37:04;;;;;;;43.67;36.90;;;;;;;;;;5027762;28;20041;-62
2023/09/17 09:39:30;;;;;;;44.47;37.57;;;;;;;;;;5027225;28;20046;-62
2023/09/17 09:41:56;;;;;;;62.03;45.57;;;;;;;;;;5027574;28;20073;-62
2023/09/17 09:44:25;;;;;;;37.87;33.83;;;;;;;;;;5027944;28;20468;-62
2023/09/17 09:46:56;;;;;;;41.33;35.97;;;;;;;;;;5027498;28;20630;-62
2023/09/17 09:49:23;;;;;;;35.93;32.23;;;;;;;;;;5027911;28;20504;-62
2023/09/17 09:51:49;;;;;;;49.77;39.00;;;;;;;;;;5028094;28;20045;-62
2023/09/17 09:54:15;;;;;;;40.53;36.23;;;;;;;;;;5027594;28;20140;-63
2023/09/17 09:56:41;;;;;;;43.77;36.67;;;;;;;;;;5027403;28;20041;-62
2023/09/17 09:59:07;;;;;;;42.57;35.50;;;;;;;;;;5028026;28;20094;-62
2023/09/17 10:01:37;;;;;;;35.77;32.07;;;;;;;;;;5022907;28;20090;-62
2023/09/17 10:04:05;;;;;;;44.03;38.40;;;;;;;;;;5025993;28;20069;-62
2023/09/17 10:06:31;;;;;;;43.83;37.10;;;;;;;;;;5027565;28;20500;-62
2023/09/17 10:08:58;;;;;;;42.63;37.97;;;;;;;;;;5046516;28;20049;-62
2023/09/17 10:11:24;;;;;;;35.63;31.77;;;;;;;;;;5033485;28;20575;-62
2023/09/17 10:14:16;;;;;;;33.43;29.93;;;;;;;;;;5027075;28;20037;-62
2023/09/17 10:16:43;;;;;;;38.60;33.47;;;;;;;;;;5024324;28;20056;-62
2023/09/17 10:19:11;;;;;;;29.20;26.17;;;;;;;;;;5024632;28;20424;-60
2023/09/17 10:21:38;;;;;;;32.87;29.47;;;;;;;;;;5025651;28;20057;-60
2023/09/17 10:24:04;;;;;;;33.60;30.07;;;;;;;;;;5025495;28;20527;-61
2023/09/17 10:26:41;;;;;;;37.67;30.20;;;;;;;;;;5025146;28;20080;-61
2023/09/17 10:29:07;;;;;;;32.40;27.77;;;;;;;;;;5025474;28;20136;-61
2023/09/17 10:31:35;;;;;;;30.40;27.20;;;;;;;;;;5025711;28;20046;-61
2023/09/17 10:34:02;;;;;;;33.43;29.83;;;;;;;;;;5027001;28;20049;-61
2023/09/17 10:36:31;;;;;;;33.63;29.93;;;;;;;;;;5024280;28;20087;-61
2023/09/17 10:38:59;;;;;;;38.57;30.60;;;;;;;;;;5027120;28;20138;-61
2023/09/17 10:41:28;;;;;;;35.47;31.50;;;;;;;;;;5027225;28;20088;-62
2023/09/17 10:43:55;;;;;;;35.67;30.30;;;;;;;;;;5026403;28;20492;-61
2023/09/17 10:46:22;;;;;;;34.83;30.80;;;;;;;;;;5026515;28;20129;-61
2023/09/17 10:48:48;;;;;;;38.20;31.13;;;;;;;;;;5027743;28;20046;-61
2023/09/17 10:51:14;;;;;;;34.30;30.63;;;;;;;;;;5029171;28;20532;-62
2023/09/17 10:53:40;;;;;;;37.73;32.97;;;;;;;;;;5030724;28;20497;-61
2023/09/17 10:56:10;;;;;;;33.60;30.07;;;;;;;;;;5029501;28;20503;-61
2023/09/17 10:58:39;;;;;;;33.90;30.27;;;;;;;;;;5030397;28;20041;-61
2023/09/17 11:01:06;;;;;;;33.27;28.93;;;;;;;;;;5028427;28;20515;-61
2023/09/17 11:03:34;;;;;;;36.03;32.10;;;;;;;;;;5044496;28;20047;-61
2023/09/17 11:06:02;;;;;;;32.47;27.70;;;;;;;;;;5028259;28;20056;-61
2023/09/17 11:08:28;;;;;;;30.30;27.13;;;;;;;;;;5024661;28;20053;-60
2023/09/17 11:10:54;;;;;;;30.13;27.03;;;;;;;;;;5044599;28;20546;-60
2023/09/17 11:13:20;;;;;;;29.57;26.50;;;;;;;;;;5034229;28;20103;-60
2023/09/17 11:15:48;;;;;;;28.50;25.57;;;;;;;;;;5030056;28;20047;-61
2023/09/17 11:18:15;;;;;;;28.43;25.27;;;;;;;;;;5028787;28;20085;-61
2023/09/17 11:21:00;;;;;;;27.57;24.87;;;;;;;;;;5029600;28;20573;-61
2023/09/17 11:23:56;;;;;;;25.43;22.80;;;;;;;;;;5030364;28;20293;-61
2023/09/17 11:26:26;;;;;;;24.57;22.03;;;;;;;;;;5035434;28;20534;-62
2023/09/17 11:28:56;;;;;;;25.70;21.37;;;;;;;;;;5027634;28;20037;-61
2023/09/17 11:31:22;;;;;;;27.20;24.40;;;;;;;;;;5031141;28;20053;-61
2023/09/17 11:33:48;;;;;;;24.90;22.43;;;;;;;;;;5029798;28;20550;-61
2023/09/17 11:36:14;;;;;;;25.70;23.13;;;;;;;;;;5029809;28;20148;-61
2023/09/17 11:38:46;;;;;;;23.23;20.60;;;;;;;;;;5029812;28;20128;-61
2023/09/17 11:41:14;;;;;;;23.10;20.83;;;;;;;;;;5030117;28;20068;-61
2023/09/17 11:43:44;;;;;;;21.67;19.37;;;;;;;;;;5032188;28;20053;-61
2023/09/17 11:46:12;;;;;;;21.83;19.63;;;;;;;;;;5034072;28;20095;-61
2023/09/17 11:48:38;;;;;;;21.80;19.53;;;;;;;;;;5029644;28;20045;-62
2023/09/17 11:51:17;;;;;;;23.43;21.10;;;;;;;;;;5030056;28;20496;-61
2023/09/17 11:53:54;;;;;;;22.77;20.47;;;;;;;;;;5022994;28;20412;-61
2023/09/17 11:56:20;;;;;;;24.93;22.43;;;;;;;;;;5045325;28;20045;-61
2023/09/17 11:58:47;;;;;;;22.93;20.47;;;;;;;;;;5027907;28;20372;-61
2023/09/17 12:01:13;;;;;;;22.47;20.00;;;;;;;;;;5028525;28;20144;-61
2023/09/17 12:03:40;;;;;;;22.63;20.23;;;;;;;;;;5014145;28;20038;-61
2023/09/17 12:06:08;;;;;;;23.17;20.93;;;;;;;;;;5024409;28;20875;-61
2023/09/17 12:08:34;;;;;;;23.90;21.27;;;;;;;;;;5028300;28;20045;-61
2023/09/17 12:11:06;;;;;;;26.00;23.47;;;;;;;;;;5028187;28;20037;-61
2023/09/17 12:13:33;;;;;;;24.30;21.90;;;;;;;;;;5029144;28;20045;-61
2023/09/17 12:16:00;;;;;;;25.83;23.20;;;;;;;;;;5029104;28;20504;-61
2023/09/17 12:18:26;;;;;;;26.17;23.43;;;;;;;;;;5028606;28;20096;-61
2023/09/17 12:20:57;;;;;;;28.90;25.57;;;;;;;;;;5028994;28;20053;-61
2023/09/17 12:23:47;;;;;;;29.40;24.17;;;;;;;;;;5029129;28;20454;-61
2023/09/17 12:26:22;;;;;;;29.63;26.57;;;;;;;;;;5028765;28;20045;-60
2023/09/17 12:28:47;;;;;;;27.20;24.33;;;;;;;;;;5029063;28;20053;-61
2023/09/17 12:31:13;;;;;;;30.57;27.27;;;;;;;;;;5028568;28;20045;-60
2023/09/17 12:33:43;;;;;;;29.73;26.73;;;;;;;;;;5028596;28;20045;-60
2023/09/17 12:36:09;;;;;;;29.87;26.70;;;;;;;;;;5028708;28;20046;-61
2023/09/17 12:38:35;;;;;;;31.47;28.17;;;;;;;;;;5028699;28;20526;-60
2023/09/17 12:41:00;;;;;;;34.27;29.50;;;;;;;;;;5028364;28;20060;-60
2023/09/17 12:43:26;;;;;;;32.70;27.57;;;;;;;;;;5028641;28;20064;-60
2023/09/17 12:45:52;;;;;;;31.57;28.17;;;;;;;;;;5028480;28;20088;-60
2023/09/17 12:48:19;;;;;;;31.80;27.90;;;;;;;;;;5028032;28;20111;-60
2023/09/17 12:50:45;;;;;;;34.50;31.03;;;;;;;;;;5028724;28;20049;-61
2023/09/17 12:53:11;;;;;;;34.63;30.50;;;;;;;;;;5027301;28;20053;-61
2023/09/17 12:55:38;;;;;;;33.97;30.50;;;;;;;;;;5028571;28;20046;-61
2023/09/17 12:58:10;;;;;;;34.50;31.00;;;;;;;;;;5028342;28;20045;-60
2023/09/17 13:00:36;;;;;;;34.33;30.67;;;;;;;;;;5028373;28;20096;-60
2023/09/17 13:03:09;;;;;;;33.80;30.20;;;;;;;;;;5028061;28;20049;-61
2023/09/17 13:05:35;;;;;;;35.43;31.30;;;;;;;;;;5028524;28;20766;-60
2023/09/17 13:08:08;;;;;;;34.03;30.43;;;;;;;;;;5028114;28;20516;-60
2023/09/17 13:10:35;;;;;;;37.50;33.15;;;;;;;;;;5028133;28;20503;-60
2023/09/17 13:13:05;;;;;;;37.33;33.43;;;;;;;;;;5027680;28;20508;-61
2023/09/17 13:15:32;;;;;;;38.90;34.43;;;;;;;;;;5027612;28;20091;-60
2023/09/17 13:18:00;;;;;;;38.60;34.40;;;;;;;;;;5028254;28;20045;-60
2023/09/17 13:20:27;;;;;;;38.90;34.63;;;;;;;;;;5028246;28;20041;-61
2023/09/17 13:22:53;;;;;;;41.00;36.50;;;;;;;;;;5028014;28;20045;-59
2023/09/17 13:25:20;;;;;;;46.20;40.30;;;;;;;;;;5028279;28;20048;-60
2023/09/17 13:27:46;;;;;;;54.53;43.57;;;;;;;;;;5027338;28;20049;-61
2023/09/17 13:30:12;;;;;;;64.20;46.53;;;;;;;;;;5028126;28;20037;-61
2023/09/17 13:32:38;;;;;;;64.33;48.23;;;;;;;;;;5028060;28;20073;-61
2023/09/17 13:35:10;;;;;;;68.13;50.77;;;;;;;;;;5027629;28;20561;-61
2023/09/17 13:37:39;;;;;;;67.93;51.00;;;;;;;;;;5027935;28;20049;-61
2023/09/17 13:40:06;;;;;;;72.43;51.33;;;;;;;;;;5027324;28;20049;-61
2023/09/17 13:42:32;;;;;;;72.87;51.23;;;;;;;;;;5027808;28;20080;-61
2023/09/17 13:44:58;;;;;;;68.27;50.13;;;;;;;;;;5026695;28;20049;-61
2023/09/17 13:47:24;;;;;;;67.40;49.23;;;;;;;;;;5027696;28;20106;-61
2023/09/17 13:49:50;;;;;;;63.43;48.97;;;;;;;;;;5027987;28;20041;-61
2023/09/17 13:52:16;;;;;;;67.37;49.17;;;;;;;;;;5027977;28;20087;-61
2023/09/17 13:54:42;;;;;;;64.03;46.73;;;;;;;;;;5027351;28;20089;-61
2023/09/17 13:57:08;;;;;;;58.03;45.23;;;;;;;;;;5027499;28;20393;-61
2023/09/17 13:59:34;;;;;;;56.13;43.83;;;;;;;;;;5027893;28;20049;-61
2023/09/17 14:02:01;;;;;;;47.17;38.07;;;;;;;;;;5027168;28;20424;-61
2023/09/17 14:04:27;;;;;;;41.07;36.37;;;;;;;;;;5027625;28;20049;-61
2023/09/17 14:06:55;;;;;;;37.47;32.20;;;;;;;;;;5028058;28;20069;-61
2023/09/17 14:09:21;;;;;;;35.70;31.90;;;;;;;;;;5027684;28;20098;-61
2023/09/17 14:11:47;;;;;;;37.93;30.73;;;;;;;;;;5027077;28;20564;-61
2023/09/17 14:14:13;;;;;;;34.03;27.57;;;;;;;;;;5027397;28;20129;-61